Miltona, Minnesota
Current Conditions -  °F | °C
As of 11:53 PM on Tuesday 25 Nov 2014 (Local Time) from KAXN Reporting Station
Overcast Overcast  
Wind Chill: 11°   Ceiling: 3900
Heat Index: 21°   Visibility: 10mi
Dew Point: 13°   Wind: 9mph
Humidity: 71%   Direction: 70°ENE
Pressure: 29.96"   Gusts: NA
Location:  46.04°N, 95.29°W
Report Text: KAXN 260553Z AUTO 07008KT 10SM OVC039 M06/M11 A2996 RMK AO2 SLP172 T10611106 11061 21067 410561150 51011
Loading
Personal Weather Stations






























Interactive Weather Map New forecast layout! Learn more

10-Day Weather Forecast

Advertisements
Track Severe Weather on mobile